createdAt,value
2023-01-13T00:09:16.285Z,84.35
2023-01-13T00:24:20.387Z,84.68
2023-01-13T00:39:25.215Z,84.51
2023-01-13T00:54:29.035Z,83.63
2023-01-13T01:09:35.088Z,83.34
2023-01-13T01:24:39.066Z,82.62
2023-01-13T01:39:44.119Z,81.86
2023-01-13T01:54:58.018Z,82.72
2023-01-13T02:10:04.339Z,83.25
2023-01-13T02:25:31.378Z,82.76
2023-01-13T02:40:39.144Z,82.40
2023-01-13T02:55:52.096Z,82.45
2023-01-13T03:11:03.766Z,82.13
2023-01-13T03:26:12.902Z,82.62
2023-01-13T03:41:25.012Z,83.41
2023-01-13T03:56:34.387Z,83.67
2023-01-13T04:11:50.087Z,83.70
2023-01-13T04:26:54.352Z,83.35
2023-01-13T04:41:59.276Z,83.10
2023-01-13T04:57:03.232Z,82.35
2023-01-13T05:12:25.706Z,81.35
2023-01-13T05:27:29.595Z,80.78
2023-01-13T05:42:52.776Z,80.12
2023-01-13T05:57:56.858Z,79.50
2023-01-13T06:13:01.599Z,79.05
2023-01-13T06:28:05.266Z,78.78
2023-01-13T06:43:16.677Z,78.38
2023-01-13T06:58:23.695Z,77.92
2023-01-13T07:13:48.722Z,77.27
2023-01-13T07:28:52.878Z,77.27
2023-01-13T07:43:57.787Z,76.83
2023-01-13T07:59:01.787Z,76.71
2023-01-13T08:14:06.654Z,76.51
2023-01-13T08:29:11.081Z,76.41
2023-01-13T08:44:17.432Z,75.73
2023-01-13T08:59:21.347Z,74.77
2023-01-13T09:14:26.266Z,74.19
2023-01-13T09:29:30.244Z,72.67
2023-01-13T09:44:46.759Z,71.44
2023-01-13T09:59:50.724Z,71.35
2023-01-13T10:14:56.025Z,70.90
2023-01-13T10:29:59.950Z,69.97
2023-01-13T10:45:06.159Z,69.09
2023-01-13T11:00:21.112Z,68.38
2023-01-13T11:15:46.877Z,68.19
2023-01-13T11:30:53.042Z,68.63
2023-01-13T11:45:58.387Z,69.21
2023-01-13T12:01:02.632Z,70.94
2023-01-13T12:16:13.434Z,75.82
2023-01-13T12:31:19.245Z,78.07
2023-01-13T12:46:24.963Z,79.29
2023-01-13T13:01:35.581Z,79.14
2023-01-13T13:16:47.601Z,78.89
2023-01-13T13:31:56.034Z,79.17
2023-01-13T13:47:02.113Z,78.73
2023-01-13T14:02:11.803Z,78.21
2023-01-13T14:17:23.956Z,77.72
2023-01-13T14:32:31.741Z,77.08
2023-01-13T14:47:37.523Z,77.00
2023-01-13T15:02:54.089Z,76.53
2023-01-13T15:17:59.831Z,76.16
2023-01-13T15:33:03.750Z,75.90
2023-01-13T15:48:08.533Z,76.16
2023-01-13T16:03:16.031Z,76.74
2023-01-13T16:18:21.117Z,77.23
2023-01-13T16:33:24.929Z,78.38
2023-01-13T16:48:29.666Z,78.76
2023-01-13T17:03:36.335Z,78.81
2023-01-13T17:18:41.432Z,78.55
2023-01-13T17:33:45.283Z,77.35
2023-01-13T17:48:51.337Z,77.16
2023-01-13T18:03:55.646Z,76.17
2023-01-13T18:19:18.604Z,76.43
2023-01-13T18:34:22.317Z,77.08
2023-01-13T18:49:26.685Z,76.47
2023-01-13T19:04:30.696Z,75.51
2023-01-13T19:19:35.192Z,74.93
2023-01-13T19:34:39.633Z,74.45
2023-01-13T19:49:46.630Z,73.63
2023-01-13T20:04:56.105Z,71.67
2023-01-13T20:20:00.738Z,71.29
2023-01-13T20:35:04.814Z,72.11
2023-01-13T20:50:09.253Z,71.82
2023-01-13T21:05:13.430Z,72.05
2023-01-13T21:20:35.045Z,72.14
2023-01-13T21:35:39.522Z,72.11
2023-01-13T21:50:47.111Z,71.53
2023-01-13T22:05:56.156Z,71.30
2023-01-13T22:21:01.296Z,71.70
2023-01-13T22:36:05.468Z,72.09
2023-01-13T22:51:13.637Z,72.97
2023-01-13T23:06:18.531Z,73.51
2023-01-13T23:21:24.229Z,73.66
2023-01-13T23:36:28.092Z,73.93
2023-01-13T23:51:33.623Z,74.20
